Time;durP1;ratioP1;P1;durP2;ratioP2;P2;SDS_P1;SDS_P2;PMS_P1;PMS_P2;Temp;Humidity;BMP_temperature;BMP_pressure;BME280_temperature;BME280_humidity;BME280_pressure;Samples;Min_cycle;Max_cycle;Signal;HPM_P1;HPM_P2
2023/05/13 00:05:05;;;;;;;1.50;1.00;;;;;;;12.05;100.00;98617.56;15273387;19;20029;-45
2023/05/13 00:10:30;;;;;;;1.15;1.00;;;;;;;11.98;100.00;98612.81;15270012;19;20767;-43
2023/05/13 00:15:54;;;;;;;1.80;1.10;;;;;;;11.89;100.00;98613.78;15273326;19;20018;-43
2023/05/13 00:21:22;;;;;;;1.73;1.17;;;;;;;11.80;100.00;98607.50;15265641;19;20475;-45
2023/05/13 00:26:46;;;;;;;1.95;1.10;;;;;;;11.79;100.00;98616.59;15267670;19;20351;-46
2023/05/13 00:32:17;;;;;;;0.90;0.90;;;;;;;11.76;100.00;98618.78;15266526;19;20029;-45
2023/05/13 00:37:44;;;;;;;1.23;1.00;;;;;;;11.73;100.00;98611.88;15272069;19;20011;-47
2023/05/13 00:43:09;;;;;;;1.15;1.00;;;;;;;11.70;100.00;98621.13;15271374;19;20003;-47
2023/05/13 00:48:34;;;;;;;1.85;1.00;;;;;;;11.67;100.00;98615.22;15272657;19;20014;-47
2023/05/13 00:54:03;;;;;;;1.27;1.08;;;;;;;11.67;100.00;98613.38;15278205;19;20014;-43
2023/05/13 00:59:30;;;;;;;1.75;0.88;;;;;;;11.64;100.00;98612.88;15284975;19;20018;-44
2023/05/13 01:05:07;;;;;;;2.95;1.15;;;;;;;11.50;100.00;98607.09;15288019;19;20090;-47
2023/05/13 01:10:41;;;;;;;1.67;1.10;;;;;;;11.40;100.00;98601.81;15279163;19;20018;-47
2023/05/13 01:16:12;;;;;;;2.42;1.15;;;;;;;11.34;100.00;98615.09;15285638;19;20719;-45
2023/05/13 01:21:40;;;;;;;1.33;1.10;;;;;;;11.25;100.00;98623.16;15281207;19;20025;-45
2023/05/13 01:27:07;;;;;;;1.13;1.00;;;;;;;11.08;100.00;98626.75;15279072;19;20018;-47
2023/05/13 01:32:39;;;;;;;1.38;1.00;;;;;;;10.97;100.00;98627.88;15279248;19;20014;-44
2023/05/13 01:38:08;;;;;;;1.75;1.20;;;;;;;10.89;100.00;98628.66;15280238;19;20501;-46
2023/05/13 01:43:37;;;;;;;2.55;1.30;;;;;;;10.84;100.00;98638.22;15283084;19;20101;-45
2023/05/13 01:49:02;;;;;;;1.98;1.25;;;;;;;10.78;100.00;98643.22;15276191;19;20033;-46
2023/05/13 01:54:31;;;;;;;1.38;1.00;;;;;;;10.73;100.00;98642.88;15282712;19;20363;-44
2023/05/13 01:59:58;;;;;;;1.75;1.23;;;;;;;10.74;100.00;98655.34;15276550;19;20017;-43
2023/05/13 02:05:25;;;;;;;1.27;1.17;;;;;;;10.70;100.00;98648.56;15283141;19;20017;-44
2023/05/13 02:11:00;;;;;;;3.30;1.10;;;;;;;10.67;100.00;98643.50;15276351;19;20011;-45
2023/05/13 02:16:26;;;;;;;1.42;1.20;;;;;;;10.67;100.00;98638.09;15279567;19;20014;-44
2023/05/13 02:21:51;;;;;;;1.17;0.93;;;;;;;10.67;100.00;98640.78;15272999;19;20014;-44
2023/05/13 02:27:19;;;;;;;1.02;0.80;;;;;;;10.67;100.00;98631.88;15276862;19;20033;-44
2023/05/13 02:32:45;;;;;;;1.30;1.00;;;;;;;10.66;100.00;98633.72;15272181;19;20045;-45
2023/05/13 02:38:10;;;;;;;1.08;0.98;;;;;;;10.63;100.00;98642.13;15276254;19;20042;-43
2023/05/13 02:43:37;;;;;;;1.65;1.10;;;;;;;10.64;100.00;98638.44;15276223;19;20022;-46
2023/05/13 02:49:02;;;;;;;1.63;1.10;;;;;;;10.63;100.00;98648.34;15273253;19;20022;-45
2023/05/13 02:54:27;;;;;;;0.90;0.85;;;;;;;10.60;100.00;98637.88;15276850;19;20023;-43
2023/05/13 02:59:54;;;;;;;0.98;0.98;;;;;;;10.53;100.00;98625.19;15272510;19;20037;-43
2023/05/13 03:05:19;;;;;;;1.80;1.10;;;;;;;10.46;100.00;98627.69;15271631;19;20017;-44
2023/05/13 03:10:46;;;;;;;1.20;1.10;;;;;;;10.41;100.00;98627.28;15273456;19;20015;-44
2023/05/13 03:16:13;;;;;;;2.50;1.20;;;;;;;10.39;100.00;98627.47;15272524;19;20520;-47
2023/05/13 03:21:38;;;;;;;1.20;1.10;;;;;;;10.38;100.00;98633.84;15272857;19;20109;-44
2023/05/13 03:27:03;;;;;;;1.50;1.20;;;;;;;10.35;100.00;98628.72;15274289;19;20042;-44
2023/05/13 03:32:30;;;;;;;1.30;1.20;;;;;;;10.31;100.00;98638.09;15249700;19;20010;-41
2023/05/13 03:37:56;;;;;;;1.65;1.20;;;;;;;10.28;100.00;98630.34;15268268;19;20088;-41
2023/05/13 03:43:25;;;;;;;1.20;1.10;;;;;;;10.29;100.00;98623.97;15270071;19;20486;-41
2023/05/13 03:48:56;;;;;;;1.60;1.35;;;;;;;10.31;100.00;98638.09;15270460;19;20022;-41
2023/05/13 03:54:22;;;;;;;1.50;1.08;;;;;;;10.29;100.00;98629.34;15273831;19;20025;-41
2023/05/13 03:59:47;;;;;;;2.22;1.10;;;;;;;10.25;100.00;98634.19;15271830;19;20018;-42
2023/05/13 04:05:16;;;;;;;1.25;1.15;;;;;;;10.23;100.00;98640.72;15268484;19;20390;-41
2023/05/13 04:10:41;;;;;;;1.17;1.10;;;;;;;10.22;100.00;98647.97;15263212;19;20014;-42
2023/05/13 04:16:05;;;;;;;1.83;1.20;;;;;;;10.19;100.00;98648.28;15261296;19;20479;-41
2023/05/13 04:21:34;;;;;;;1.80;1.15;;;;;;;10.23;100.00;98656.88;15269792;19;20019;-44
2023/05/13 04:26:59;;;;;;;1.20;1.10;;;;;;;10.27;100.00;98658.28;15268173;19;20514;-42
2023/05/13 04:32:24;;;;;;;1.13;1.02;;;;;;;10.31;100.00;98670.41;15271348;19;20056;-42
2023/05/13 04:37:51;;;;;;;2.78;1.10;;;;;;;10.32;100.00;98675.66;15285102;19;20018;-41
2023/05/13 04:43:16;;;;;;;2.25;1.20;;;;;;;10.37;100.00;98677.91;15278729;19;20015;-41
2023/05/13 04:48:46;;;;;;;1.30;1.20;;;;;;;10.47;100.00;98673.31;15280096;19;20463;-41
2023/05/13 04:54:14;;;;;;;2.42;1.15;;;;;;;10.57;100.00;98675.94;15283470;19;20015;-42
2023/05/13 04:59:40;;;;;;;1.15;1.10;;;;;;;10.63;100.00;98675.28;15280831;19;20014;-41
2023/05/13 05:05:05;;;;;;;1.17;1.08;;;;;;;10.70;100.00;98685.47;15284668;19;20044;-41
2023/05/13 05:10:33;;;;;;;1.02;0.93;;;;;;;10.75;100.00;98688.53;15282560;19;20082;-41
2023/05/13 05:15:59;;;;;;;2.95;1.17;;;;;;;10.82;100.00;98694.13;15276042;19;20795;-41
2023/05/13 05:21:24;;;;;;;1.77;1.20;;;;;;;10.87;100.00;98691.84;15279897;19;20031;-41
2023/05/13 05:26:53;;;;;;;1.98;1.35;;;;;;;10.98;100.00;98707.75;15282058;19;20031;-41
2023/05/13 05:32:26;;;;;;;1.38;1.20;;;;;;;11.05;100.00;98708.81;15278688;19;20018;-41
2023/05/13 05:37:51;;;;;;;1.90;1.42;;;;;;;11.16;100.00;98707.72;15281865;19;20110;-41
2023/05/13 05:43:19;;;;;;;2.22;1.30;;;;;;;11.23;100.00;98711.47;15283181;19;20015;-42
2023/05/13 05:48:46;;;;;;;3.28;1.70;;;;;;;11.34;100.00;98718.47;15276586;19;20408;-42
2023/05/13 05:54:10;;;;;;;2.63;2.40;;;;;;;11.45;100.00;98721.88;15282795;19;20024;-42
2023/05/13 05:59:37;;;;;;;2.10;1.90;;;;;;;11.57;100.00;98731.41;15281773;19;20018;-41
2023/05/13 06:05:02;;;;;;;2.47;1.80;;;;;;;11.65;100.00;98720.66;15283502;19;20017;-41
2023/05/13 06:10:28;;;;;;;1.85;1.60;;;;;;;11.78;100.00;98712.09;15279434;19;20016;-42
2023/05/13 06:15:56;;;;;;;1.67;1.30;;;;;;;11.97;100.00;98705.59;15283044;19;20039;-42
2023/05/13 06:21:21;;;;;;;3.40;1.50;;;;;;;12.13;100.00;98699.41;15279657;19;20030;-42
2023/05/13 06:26:45;;;;;;;1.63;1.23;;;;;;;12.32;100.00;98697.47;15280262;19;20011;-41
2023/05/13 06:32:20;;;;;;;2.17;1.63;;;;;;;12.57;100.00;98686.69;15276288;19;20058;-42
2023/05/13 06:37:47;;;;;;;1.80;0.90;;;;;;;12.83;100.00;98680.25;15280557;19;20014;-44
2023/05/13 06:43:13;;;;;;;3.33;1.00;;;;;;;13.07;100.00;98684.81;15277791;19;20482;-48
2023/05/13 06:48:43;;;;;;;1.23;1.10;;;;;;;13.29;100.00;98688.66;15278517;19;20013;-47
2023/05/13 06:54:09;;;;;;;3.08;0.90;;;;;;;13.55;100.00;98677.63;15280049;19;20020;-47
2023/05/13 06:59:34;;;;;;;1.20;0.77;;;;;;;13.75;100.00;98688.06;15279519;19;20018;-45
2023/05/13 07:05:02;;;;;;;1.42;0.80;;;;;;;13.99;100.00;98688.97;15281377;19;20026;-44
2023/05/13 07:10:28;;;;;;;1.23;0.80;;;;;;;14.12;100.00;98689.25;15277899;19;20011;-44
2023/05/13 07:15:52;;;;;;;1.25;0.80;;;;;;;14.30;100.00;98685.41;15275586;19;20011;-43
2023/05/13 07:21:19;;;;;;;5.50;0.90;;;;;;;14.49;100.00;98679.53;15272564;19;20018;-45
2023/05/13 07:26:44;;;;;;;0.88;0.80;;;;;;;14.65;100.00;98677.69;15277054;19;20030;-42
2023/05/13 07:32:09;;;;;;;1.40;0.70;;;;;;;14.78;100.00;98675.25;15276368;19;20029;-43
2023/05/13 07:37:38;;;;;;;1.08;0.90;;;;;;;14.96;100.00;98679.53;15276031;19;20729;-43
2023/05/13 07:43:03;;;;;;;2.45;0.80;;;;;;;15.14;100.00;98670.19;15274833;19;21000;-42
2023/05/13 07:48:27;;;;;;;1.77;0.80;;;;;;;15.30;100.00;98670.03;15282537;19;20014;-43
2023/05/13 07:53:55;;;;;;;2.13;0.88;;;;;;;15.43;100.00;98669.38;15284052;19;20011;-42
2023/05/13 07:59:20;;;;;;;2.50;0.80;;;;;;;15.66;100.00;98669.31;15286298;19;20033;-44
2023/05/13 08:04:46;;;;;;;2.58;0.65;;;;;;;15.80;100.00;98664.03;15283357;19;20014;-43
2023/05/13 08:10:14;;;;;;;3.38;0.90;;;;;;;15.96;100.00;98679.31;15287746;19;20023;-44
2023/05/13 08:15:39;;;;;;;1.23;0.95;;;;;;;15.99;100.00;98668.91;15290174;19;20368;-43
2023/05/13 08:21:04;;;;;;;1.35;0.90;;;;;;;16.07;100.00;98669.81;15286810;19;20013;-43
2023/05/13 08:26:31;;;;;;;2.95;1.10;;;;;;;16.12;100.00;98668.22;15285114;19;20018;-43
2023/05/13 08:32:03;;;;;;;2.53;0.90;;;;;;;16.28;100.00;98669.03;15284397;19;20050;-45
2023/05/13 08:37:28;;;;;;;1.40;1.10;;;;;;;16.38;100.00;98671.44;15287250;19;20010;-43
2023/05/13 08:42:56;;;;;;;1.55;0.90;;;;;;;16.43;100.00;98669.81;15282867;19;20822;-43
2023/05/13 08:48:22;;;;;;;1.33;0.90;;;;;;;16.55;100.00;98670.13;15287833;19;20018;-43
2023/05/13 08:53:47;;;;;;;2.00;0.98;;;;;;;16.67;100.00;98670.47;15280663;19;20468;-43
2023/05/13 08:59:14;;;;;;;1.60;1.00;;;;;;;16.74;100.00;98665.09;15281293;19;20077;-45
2023/05/13 09:04:41;;;;;;;2.25;1.00;;;;;;;16.78;100.00;98675.41;15283245;19;20011;-43
2023/05/13 09:10:07;;;;;;;1.52;0.80;;;;;;;16.83;100.00;98663.94;15284023;19;20085;-45
2023/05/13 09:15:36;;;;;;;3.70;0.90;;;;;;;16.96;100.00;98662.38;15286861;19;20023;-43
2023/05/13 09:21:25;;;;;;;4.30;1.08;;;;;;;17.05;100.00;98655.75;15281682;19;20018;-45
2023/05/13 09:26:50;;;;;;;1.00;0.90;;;;;;;17.09;100.00;98657.06;15283888;19;20020;-43
2023/05/13 09:32:24;;;;;;;2.03;0.93;;;;;;;17.20;100.00;98661.94;15280471;19;20078;-43
2023/05/13 09:37:50;;;;;;;1.35;0.93;;;;;;;17.29;100.00;98656.34;15283756;19;20023;-43
2023/05/13 09:43:15;;;;;;;3.00;0.85;;;;;;;17.47;100.00;98659.38;15285635;19;20035;-46
2023/05/13 09:48:45;;;;;;;1.67;1.10;;;;;;;17.51;100.00;98655.22;15277710;19;20421;-45
2023/05/13 09:54:13;;;;;;;3.08;1.23;;;;;;;17.52;100.00;98656.91;15274826;19;20007;-43
2023/05/13 09:59:38;;;;;;;2.08;1.00;;;;;;;17.66;100.00;98651.53;15278909;19;20020;-44
2023/05/13 10:05:05;;;;;;;1.77;0.70;;;;;;;17.82;100.00;98656.63;15278559;19;20134;-46
2023/05/13 10:10:39;;;;;;;1.33;0.82;;;;;;;18.07;100.00;98647.13;15274590;19;20010;-44
2023/05/13 10:16:05;;;;;;;1.15;1.00;;;;;;;18.27;100.00;98652.66;15280303;19;20464;-44
2023/05/13 10:21:35;;;;;;;3.08;1.10;;;;;;;18.37;100.00;98650.38;15277213;19;20018;-44
2023/05/13 10:27:03;;;;;;;3.25;1.00;;;;;;;18.35;100.00;98638.81;15276299;19;20070;-43
2023/05/13 10:32:27;;;;;;;1.58;1.00;;;;;;;18.21;100.00;98643.41;15272854;19;20018;-46
2023/05/13 10:38:09;;;;;;;1.83;0.85;;;;;;;18.32;99.66;98633.78;15272364;19;20025;-43
2023/05/13 10:43:36;;;;;;;1.77;0.90;;;;;;;18.65;100.00;98630.25;15275979;19;20010;-43
2023/05/13 10:49:01;;;;;;;3.13;0.90;;;;;;;18.73;88.71;98629.22;15275277;19;20024;-43
2023/05/13 10:54:31;;;;;;;3.05;0.90;;;;;;;19.04;96.02;98631.34;15271211;19;20089;-44
2023/05/13 11:00:16;;;;;;;3.05;0.80;;;;;;;19.30;92.36;98640.56;15275074;19;20372;-44
2023/05/13 11:05:40;;;;;;;1.98;0.80;;;;;;;19.29;89.03;98636.16;15276458;19;20012;-42
2023/05/13 11:11:35;;;;;;;6.50;1.00;;;;;;;18.95;87.11;98643.53;15272689;19;20038;-47
2023/05/13 11:17:18;;;;;;;1.15;0.88;;;;;;;18.68;94.67;98631.75;15272126;19;20016;-47
2023/05/13 11:22:43;;;;;;;1.35;0.98;;;;;;;18.55;91.86;98638.00;15271814;19;20014;-43
2023/05/13 11:28:07;;;;;;;1.40;0.80;;;;;;;18.83;95.77;98639.72;15272583;19;20025;-44
2023/05/13 11:34:14;;;;;;;3.17;0.73;;;;;;;18.70;82.33;98627.75;15269949;19;20565;-43
2023/05/13 11:39:41;;;;;;;1.80;0.80;;;;;;;18.68;95.36;98638.03;15272621;19;20272;-43
2023/05/13 11:45:07;;;;;;;0.93;0.77;;;;;;;18.67;100.00;98630.88;15274991;19;20361;-44
2023/05/13 11:50:35;;;;;;;1.17;0.80;;;;;;;18.94;94.77;98620.84;15274915;19;20018;-45
2023/05/13 11:55:59;;;;;;;0.85;0.70;;;;;;;19.42;100.00;98618.03;15274515;19;20359;-45
2023/05/13 12:01:24;;;;;;;1.48;1.10;;;;;;;19.51;97.20;98627.69;15270776;19;20017;-43
2023/05/13 12:06:54;;;;;;;1.30;0.80;;;;;;;19.06;80.08;98629.25;15273415;19;20014;-46
2023/05/13 12:12:20;;;;;;;0.98;0.80;;;;;;;18.63;91.43;98624.19;15269090;19;20367;-44
2023/05/13 12:17:45;;;;;;;1.27;0.73;;;;;;;18.55;99.96;98633.41;15272555;19;20024;-45
2023/05/13 12:23:13;;;;;;;1.38;0.80;;;;;;;18.50;96.54;98640.53;15270230;19;20011;-44
2023/05/13 12:28:39;;;;;;;1.08;0.80;;;;;;;18.60;100.00;98641.78;15271173;19;20025;-45
2023/05/13 12:34:10;;;;;;;1.08;0.77;;;;;;;18.55;98.23;98643.47;15268844;19;20013;-44
2023/05/13 12:39:38;;;;;;;1.30;0.90;;;;;;;18.76;99.39;98653.34;15270662;19;20462;-44
2023/05/13 12:45:03;;;;;;;1.63;0.80;;;;;;;18.92;100.00;98654.84;15270619;19;20011;-45
2023/05/13 12:50:28;;;;;;;1.95;0.80;;;;;;;18.97;100.00;98652.34;15270415;19;20010;-44
2023/05/13 12:55:56;;;;;;;2.65;0.80;;;;;;;19.05;100.00;98645.84;15284000;19;20078;-42
2023/05/13 13:01:22;;;;;;;1.85;1.13;;;;;;;19.20;100.00;98656.53;15282586;19;20021;-45
2023/05/13 13:06:46;;;;;;;1.45;0.70;;;;;;;19.04;100.00;98653.19;15283665;19;20021;-44
2023/05/13 13:12:14;;;;;;;2.03;0.90;;;;;;;18.93;100.00;98654.63;15280966;19;20060;-44
2023/05/13 13:17:38;;;;;;;2.05;0.80;;;;;;;18.98;100.00;98651.31;15283881;19;20023;-45
2023/05/13 13:23:03;;;;;;;2.88;0.80;;;;;;;18.98;100.00;98654.03;15281626;19;20488;-46
2023/05/13 13:28:30;;;;;;;1.05;0.68;;;;;;;19.24;100.00;98653.16;15286058;19;20021;-45
2023/05/13 13:34:04;;;;;;;1.50;0.70;;;;;;;19.35;98.79;98657.13;15281402;19;20022;-43
2023/05/13 13:39:29;;;;;;;1.15;0.77;;;;;;;19.52;88.22;98649.31;15280395;19;20014;-44
2023/05/13 13:44:56;;;;;;;1.25;0.70;;;;;;;19.71;88.49;98641.28;15279607;19;20025;-47
2023/05/13 13:50:21;;;;;;;1.15;0.70;;;;;;;20.21;80.94;98640.69;15280299;19;20271;-47
2023/05/13 13:55:45;;;;;;;2.13;0.70;;;;;;;20.51;78.13;98634.63;15277905;19;20370;-47
2023/05/13 14:01:13;;;;;;;0.90;0.70;;;;;;;20.43;66.02;98637.59;15281024;19;20034;-42
2023/05/13 14:06:37;;;;;;;1.15;0.70;;;;;;;21.16;69.26;98628.00;15281567;19;20015;-46
2023/05/13 14:12:02;;;;;;;0.50;0.50;;;;;;;21.69;64.59;98612.09;15282056;19;20011;-44
2023/05/13 14:17:29;;;;;;;0.82;0.60;;;;;;;21.95;62.40;98612.81;15283460;19;20011;-42
2023/05/13 14:22:55;;;;;;;0.93;0.50;;;;;;;22.26;57.59;98609.03;15277483;19;20539;-43
2023/05/13 14:28:21;;;;;;;0.80;0.50;;;;;;;22.38;58.83;98609.06;15280244;19;20073;-42
2023/05/13 14:33:55;;;;;;;2.50;0.52;;;;;;;22.78;56.89;98607.66;15276280;19;20487;-43
2023/05/13 14:39:21;;;;;;;0.68;0.43;;;;;;;22.82;57.41;98613.50;15280054;19;20014;-43
2023/05/13 14:44:45;;;;;;;0.68;0.43;;;;;;;22.83;56.83;98610.50;15281023;19;20027;-43
2023/05/13 14:50:14;;;;;;;2.00;0.70;;;;;;;22.90;55.78;98618.63;15277762;19;20026;-44
2023/05/13 14:55:38;;;;;;;1.02;0.60;;;;;;;23.21;57.97;98616.66;15274443;19;20010;-43
2023/05/13 15:01:03;;;;;;;1.25;0.70;;;;;;;23.26;57.76;98618.69;15271715;19;20013;-44
2023/05/13 15:06:30;;;;;;;0.68;0.40;;;;;;;23.13;56.64;98625.22;15249585;19;20026;-46
2023/05/13 15:11:55;;;;;;;0.55;0.50;;;;;;;22.81;57.09;98618.16;15272085;19;20089;-44
2023/05/13 15:17:19;;;;;;;1.05;0.60;;;;;;;22.50;62.00;98622.03;15270823;19;20006;-43
2023/05/13 15:22:47;;;;;;;1.13;0.60;;;;;;;22.03;62.07;98628.97;15271946;19;20744;-44
2023/05/13 15:28:12;;;;;;;0.77;0.60;;;;;;;21.81;63.93;98620.38;15270827;19;20082;-44
2023/05/13 15:33:43;;;;;;;0.63;0.63;;;;;;;21.84;63.22;98625.41;15275163;19;20030;-44
2023/05/13 15:39:11;;;;;;;2.33;0.80;;;;;;;21.69;61.62;98623.06;15273133;19;20022;-43
2023/05/13 15:44:35;;;;;;;0.60;0.50;;;;;;;21.62;62.49;98627.78;15274893;19;20032;-47
2023/05/13 15:50:00;;;;;;;0.95;0.65;;;;;;;21.68;61.57;98622.22;15273605;19;20042;-44
2023/05/13 15:55:27;;;;;;;1.40;0.50;;;;;;;21.78;60.77;98620.84;15270091;19;20363;-45
2023/05/13 16:00:52;;;;;;;0.85;0.70;;;;;;;21.82;60.67;98609.19;15272513;19;20036;-43
2023/05/13 16:06:17;;;;;;;0.55;0.55;;;;;;;21.25;59.75;98612.94;15274536;19;20025;-45
2023/05/13 16:11:45;;;;;;;0.60;0.60;;;;;;;21.03;60.00;98608.97;15272756;19;20014;-47
2023/05/13 16:17:10;;;;;;;0.98;0.70;;;;;;;20.57;62.15;98600.88;15272617;19;20074;-44
2023/05/13 16:22:36;;;;;;;0.90;0.70;;;;;;;20.08;62.19;98597.84;15270412;19;20025;-44
2023/05/13 16:28:03;;;;;;;0.50;0.50;;;;;;;19.61;65.45;98602.66;15271536;19;20359;-45
2023/05/13 16:33:35;;;;;;;0.80;0.60;;;;;;;19.54;74.50;98602.66;15283878;19;20545;-45
2023/05/13 16:39:00;;;;;;;0.60;0.60;;;;;;;19.37;80.39;98597.66;15286415;19;20021;-45
2023/05/13 16:44:27;;;;;;;2.30;0.60;;;;;;;19.17;86.57;98594.97;15288192;19;20021;-44
2023/05/13 16:49:54;;;;;;;1.10;0.70;;;;;;;19.15;87.85;98594.38;15286388;19;20014;-44
2023/05/13 16:55:19;;;;;;;1.00;0.70;;;;;;;19.36;88.32;98587.78;15275792;19;20032;-45
2023/05/13 17:00:47;;;;;;;0.68;0.60;;;;;;;19.50;87.54;98598.69;15274467;19;20345;-46
2023/05/13 17:06:15;;;;;;;0.60;0.60;;;;;;;19.59;93.72;98594.66;15284112;19;20021;-44
2023/05/13 17:11:41;;;;;;;0.88;0.60;;;;;;;19.49;92.29;98599.72;15281946;19;20085;-44
2023/05/13 17:17:08;;;;;;;1.25;0.45;;;;;;;18.88;87.79;98596.22;15282352;19;20749;-43
2023/05/13 17:22:33;;;;;;;1.02;0.60;;;;;;;18.51;93.21;98593.09;15279097;19;20014;-45
2023/05/13 17:27:59;;;;;;;0.60;0.60;;;;;;;18.22;100.00;98589.69;15282639;19;20025;-44
2023/05/13 17:33:32;;;;;;;2.40;0.63;;;;;;;17.94;100.00;98594.22;15274116;19;20359;-47
2023/05/13 17:38:57;;;;;;;0.57;0.57;;;;;;;17.95;100.00;98595.91;15279451;19;20719;-43
2023/05/13 17:44:22;;;;;;;2.45;0.75;;;;;;;17.98;100.00;98605.56;15282967;19;20035;-43
2023/05/13 17:49:50;;;;;;;0.80;0.70;;;;;;;18.18;100.00;98600.19;15281137;19;20039;-44
2023/05/13 17:55:16;;;;;;;1.08;0.70;;;;;;;18.21;100.00;98598.91;15271855;19;20488;-45
2023/05/13 18:00:41;;;;;;;1.33;0.70;;;;;;;17.91;100.00;98607.41;15279089;19;20042;-45
2023/05/13 18:06:08;;;;;;;0.90;0.70;;;;;;;17.78;100.00;98611.78;15274419;19;20025;-45
2023/05/13 18:11:33;;;;;;;0.55;0.50;;;;;;;17.38;100.00;98606.97;15277722;19;20097;-45
2023/05/13 18:16:57;;;;;;;1.27;0.70;;;;;;;17.21;100.00;98608.31;15276704;19;20014;-44
2023/05/13 18:22:25;;;;;;;0.60;0.60;;;;;;;16.86;100.00;98614.56;15278756;19;20015;-43
2023/05/13 18:27:51;;;;;;;3.35;0.70;;;;;;;16.43;100.00;98614.59;15278107;19;20019;-43
2023/05/13 18:33:15;;;;;;;0.88;0.88;;;;;;;16.19;100.00;98630.25;15273852;19;20018;-44
2023/05/13 18:38:44;;;;;;;1.50;1.20;;;;;;;15.89;100.00;98626.75;15272366;19;20022;-43
2023/05/13 18:44:09;;;;;;;1.20;1.10;;;;;;;15.55;100.00;98634.47;15280127;19;20014;-43
2023/05/13 18:49:34;;;;;;;1.25;1.05;;;;;;;15.36;100.00;98642.13;15277603;19;20010;-44
2023/05/13 18:55:05;;;;;;;1.13;0.95;;;;;;;15.17;100.00;98648.94;15276900;19;20033;-46
2023/05/13 19:00:29;;;;;;;1.13;0.90;;;;;;;15.05;100.00;98648.56;15276287;19;20019;-42
2023/05/13 19:05:53;;;;;;;0.80;0.80;;;;;;;14.86;100.00;98657.25;15277577;19;20014;-44
2023/05/13 19:11:21;;;;;;;1.85;1.30;;;;;;;14.71;100.00;98658.03;15268666;19;20086;-42
2023/05/13 19:16:46;;;;;;;1.58;1.00;;;;;;;14.59;100.00;98667.59;15272996;19;20882;-42
2023/05/13 19:22:11;;;;;;;1.48;0.80;;;;;;;14.38;100.00;98666.41;15278472;19;20018;-42
2023/05/13 19:27:38;;;;;;;1.02;0.80;;;;;;;14.22;100.00;98677.31;15273925;19;20050;-43
2023/05/13 19:33:03;;;;;;;0.63;0.63;;;;;;;14.09;100.00;98672.50;15270463;19;20091;-44
2023/05/13 19:38:28;;;;;;;1.40;0.80;;;;;;;13.98;100.00;98682.72;15270220;19;20026;-42
2023/05/13 19:43:57;;;;;;;0.77;0.77;;;;;;;13.89;100.00;98677.50;15266595;19;20354;-42
2023/05/13 19:49:21;;;;;;;0.77;0.77;;;;;;;13.79;100.00;98680.41;15273090;19;20025;-42
2023/05/13 19:54:46;;;;;;;1.15;0.70;;;;;;;13.71;100.00;98678.56;15273634;19;20027;-43
2023/05/13 20:00:14;;;;;;;0.70;0.70;;;;;;;13.70;100.00;98685.88;15275936;19;20006;-42
2023/05/13 20:05:39;;;;;;;0.80;0.80;;;;;;;13.69;100.00;98686.06;15272673;19;20090;-43
2023/05/13 20:11:03;;;;;;;0.73;0.70;;;;;;;13.68;100.00;98687.91;15264494;19;20313;-44
2023/05/13 20:16:31;;;;;;;0.70;0.70;;;;;;;13.66;100.00;98680.97;15262938;19;20022;-41
2023/05/13 20:21:55;;;;;;;1.10;0.70;;;;;;;13.64;100.00;98680.31;15271145;19;20487;-43
2023/05/13 20:27:21;;;;;;;0.50;0.50;;;;;;;13.62;100.00;98677.78;15274140;19;20078;-42
2023/05/13 20:32:55;;;;;;;0.85;0.80;;;;;;;13.63;100.00;98670.50;15266610;19;20015;-46
2023/05/13 20:38:21;;;;;;;2.47;1.60;;;;;;;13.62;100.00;98671.50;15267756;19;20011;-43
2023/05/13 20:43:46;;;;;;;1.60;1.50;;;;;;;13.62;100.00;98671.50;15270131;19;20025;-43
2023/05/13 20:49:13;;;;;;;1.90;1.13;;;;;;;13.62;100.00;98674.22;15269554;19;20006;-43
2023/05/13 20:54:38;;;;;;;2.90;0.90;;;;;;;13.60;100.00;98668.13;15268687;19;20357;-44
2023/05/13 21:00:02;;;;;;;1.33;1.08;;;;;;;13.62;100.00;98666.09;15268538;19;20538;-44
2023/05/13 21:05:30;;;;;;;0.90;0.90;;;;;;;13.60;100.00;98668.13;15268740;19;20018;-45
2023/05/13 21:10:56;;;;;;;1.08;1.02;;;;;;;13.59;100.00;98666.44;15264227;19;20027;-45
2023/05/13 21:16:22;;;;;;;0.80;0.80;;;;;;;13.55;100.00;98669.50;15269240;19;20081;-43
2023/05/13 21:21:50;;;;;;;2.05;1.00;;;;;;;13.54;100.00;98662.41;15282829;19;20105;-44
2023/05/13 21:27:16;;;;;;;1.42;0.90;;;;;;;13.54;100.00;98667.81;15284841;19;20018;-44
2023/05/13 21:32:40;;;;;;;1.27;0.90;;;;;;;13.50;100.00;98663.78;15282737;19;20014;-44
2023/05/13 21:38:08;;;;;;;2.10;1.20;;;;;;;13.44;100.00;98669.03;15279802;19;20010;-45
2023/05/13 21:43:32;;;;;;;3.28;1.20;;;;;;;13.40;100.00;98669.41;15286063;19;20014;-44
2023/05/13 21:48:58;;;;;;;1.50;1.40;;;;;;;13.35;100.00;98657.34;15273487;19;20018;-49
2023/05/13 21:54:25;;;;;;;1.15;1.10;;;;;;;13.35;100.00;98668.16;15284294;19;20026;-42
2023/05/13 21:59:50;;;;;;;1.20;1.10;;;;;;;13.33;100.00;98673.75;15280092;19;20086;-46
2023/05/13 22:05:15;;;;;;;2.08;1.10;;;;;;;13.35;100.00;98663.63;15284369;19;20010;-44
2023/05/13 22:10:43;;;;;;;1.20;1.10;;;;;;;13.32;100.00;98666.66;15276715;19;20029;-44
2023/05/13 22:16:08;;;;;;;1.63;1.10;;;;;;;13.32;100.00;98660.41;15272435;19;20037;-43
2023/05/13 22:21:33;;;;;;;1.65;1.10;;;;;;;13.32;100.00;98663.97;15278821;19;20015;-43
2023/05/13 22:27:00;;;;;;;1.20;1.00;;;;;;;13.30;100.00;98659.75;15278071;19;20018;-43
2023/05/13 22:32:25;;;;;;;1.42;1.10;;;;;;;13.21;100.00;98651.66;15276617;19;20033;-46
2023/05/13 22:37:51;;;;;;;1.30;1.20;;;;;;;13.21;100.00;98659.78;15272457;19;20085;-44
2023/05/13 22:43:19;;;;;;;1.30;1.20;;;;;;;13.17;100.00;98647.59;15276483;19;20021;-44
2023/05/13 22:48:44;;;;;;;1.20;0.95;;;;;;;13.11;100.00;98645.59;15271907;19;20010;-45
2023/05/13 22:54:10;;;;;;;1.30;1.20;;;;;;;13.05;100.00;98649.81;15273843;19;20019;-46
2023/05/13 22:59:37;;;;;;;1.40;1.20;;;;;;;13.06;100.00;98650.66;15273722;19;20430;-45
2023/05/13 23:05:02;;;;;;;1.10;1.10;;;;;;;13.04;100.00;98652.69;15275776;19;20715;-43
2023/05/13 23:10:26;;;;;;;1.45;1.35;;;;;;;12.98;100.00;98646.09;15272337;19;20054;-44
2023/05/13 23:15:54;;;;;;;1.30;1.20;;;;;;;12.92;100.00;98644.94;15271510;19;20018;-45
2023/05/13 23:21:18;;;;;;;1.70;1.35;;;;;;;12.92;100.00;98634.13;15271894;19;20037;-46
2023/05/13 23:26:43;;;;;;;1.65;1.20;;;;;;;12.83;100.00;98627.03;15271998;19;20011;-47
2023/05/13 23:32:11;;;;;;;1.65;1.30;;;;;;;12.76;100.00;98628.72;15271742;19;20482;-44
2023/05/13 23:37:36;;;;;;;2.08;1.20;;;;;;;12.69;100.00;98633.13;15271925;19;20011;-44
2023/05/13 23:43:01;;;;;;;1.77;1.40;;;;;;;12.62;100.00;98625.72;15273727;19;20023;-47
2023/05/13 23:48:29;;;;;;;1.45;1.30;;;;;;;12.55;100.00;98615.75;15272109;19;20435;-45
2023/05/13 23:53:55;;;;;;;1.50;1.40;;;;;;;12.52;100.00;98616.06;15277837;19;20026;-45
2023/05/13 23:59:19;;;;;;;2.28;1.20;;;;;;;12.40;100.00;98607.47;15271625;19;20013;-44
